Time;durP1;ratioP1;P1;durP2;ratioP2;P2;SDS_P1;SDS_P2;PMS_P1;PMS_P2;Temp;Humidity;BMP_temperature;BMP_pressure;BME280_temperature;BME280_humidity;BME280_pressure;Samples;Min_cycle;Max_cycle;Signal;HPM_P1;HPM_P2
2021/09/19 00:00:54;;;;;;;1.70;1.00;;;17.50;99.90;;;;;;5013797;28;20619;-78
2021/09/19 00:03:19;;;;;;;1.83;1.10;;;17.50;99.90;;;;;;5014132;28;20289;-78
2021/09/19 00:05:45;;;;;;;1.33;0.70;;;17.50;99.90;;;;;;5014180;28;20169;-78
2021/09/19 00:08:11;;;;;;;2.77;1.17;;;17.50;99.90;;;;;;5013510;28;20573;-78
2021/09/19 00:10:37;;;;;;;2.03;1.03;;;17.50;99.90;;;;;;4996209;28;20182;-78
2021/09/19 00:13:03;;;;;;;1.50;0.80;;;17.50;99.90;;;;;;4995761;28;20631;-78
2021/09/19 00:15:29;;;;;;;1.80;0.80;;;17.40;99.90;;;;;;5013449;28;20202;-78
2021/09/19 00:17:55;;;;;;;1.30;0.80;;;17.40;99.90;;;;;;4995511;28;20245;-78
2021/09/19 00:20:20;;;;;;;1.60;0.90;;;17.40;99.90;;;;;;5013330;28;20171;-78
2021/09/19 00:22:46;;;;;;;1.30;0.80;;;17.40;99.90;;;;;;4995643;28;20193;-78
2021/09/19 00:25:13;;;;;;;1.53;1.00;;;17.40;99.90;;;;;;5013557;28;20228;-79
2021/09/19 00:27:39;;;;;;;1.97;0.77;;;17.40;99.90;;;;;;5016232;28;20173;-79
2021/09/19 00:30:06;;;;;;;1.17;0.60;;;17.30;99.90;;;;;;5013766;28;20617;-78
2021/09/19 00:32:32;;;;;;;2.40;0.80;;;17.30;99.90;;;;;;5012884;28;20588;-78
2021/09/19 00:34:58;;;;;;;2.67;0.80;;;17.30;99.90;;;;;;5012903;28;20716;-78
2021/09/19 00:37:24;;;;;;;1.33;0.80;;;17.30;99.90;;;;;;4995166;28;20181;-78
2021/09/19 00:39:49;;;;;;;1.60;0.77;;;17.20;99.90;;;;;;5012442;28;20218;-78
2021/09/19 00:42:15;;;;;;;1.57;0.70;;;17.20;99.90;;;;;;5012909;28;20166;-78
2021/09/19 00:44:41;;;;;;;2.80;0.80;;;17.20;99.90;;;;;;4995267;28;20170;-78
2021/09/19 00:47:06;;;;;;;1.27;0.70;;;17.20;99.90;;;;;;5012686;28;20867;-78
2021/09/19 00:49:33;;;;;;;1.80;0.90;;;17.20;99.90;;;;;;5012127;28;20221;-78
2021/09/19 00:51:59;;;;;;;1.80;1.10;;;17.20;99.90;;;;;;5012793;28;20689;-78
2021/09/19 00:54:25;;;;;;;2.23;0.70;;;17.20;99.90;;;;;;4978635;28;20652;-78
2021/09/19 00:56:55;;;;;;;1.40;0.63;;;17.10;99.90;;;;;;5012536;28;20170;-78
2021/09/19 00:59:21;;;;;;;1.37;0.77;;;17.10;99.90;;;;;;4994480;28;20695;-78
2021/09/19 01:01:52;;;;;;;1.90;0.80;;;17.10;99.90;;;;;;4994949;28;20574;-78
2021/09/19 01:04:18;;;;;;;1.40;0.80;;;17.10;99.90;;;;;;5013819;28;20574;-78
2021/09/19 01:06:44;;;;;;;1.27;0.63;;;17.10;99.90;;;;;;5015226;28;20892;-78
2021/09/19 01:09:11;;;;;;;1.40;0.90;;;17.10;99.90;;;;;;5011923;28;20593;-78
2021/09/19 01:11:37;;;;;;;2.23;0.80;;;17.10;99.90;;;;;;5011806;28;21215;-78
2021/09/19 01:14:03;;;;;;;1.33;0.77;;;17.00;99.90;;;;;;5012236;28;20671;-78
2021/09/19 01:16:29;;;;;;;1.30;0.80;;;17.00;99.90;;;;;;5012076;28;20577;-78
2021/09/19 01:18:55;;;;;;;2.83;0.83;;;17.00;99.90;;;;;;5011862;28;20597;-78
2021/09/19 01:21:23;;;;;;;1.83;0.70;;;17.00;99.90;;;;;;5011925;28;20561;-78
2021/09/19 01:24:15;;;;;;;1.50;0.90;;;16.90;99.90;;;;;;4994602;28;21125;-78
2021/09/19 01:26:41;;;;;;;2.37;0.77;;;16.90;99.90;;;;;;5008467;28;20586;-78
2021/09/19 01:29:07;;;;;;;2.00;0.70;;;17.00;99.90;;;;;;5011463;28;21210;-78
2021/09/19 01:31:33;;;;;;;1.30;0.87;;;16.90;99.90;;;;;;5011754;28;20565;-78
2021/09/19 01:33:59;;;;;;;1.40;0.73;;;16.90;99.90;;;;;;5011188;28;20233;-78
2021/09/19 01:36:25;;;;;;;1.23;0.83;;;16.90;99.90;;;;;;5011835;28;20620;-78
2021/09/19 01:38:51;;;;;;;1.67;0.70;;;16.90;99.90;;;;;;4994474;28;20191;-78
2021/09/19 01:41:19;;;;;;;1.30;0.80;;;16.90;99.90;;;;;;5011644;28;20201;-78
2021/09/19 01:43:45;;;;;;;1.53;0.80;;;16.90;99.90;;;;;;4964134;28;20318;-78
2021/09/19 01:46:11;;;;;;;1.83;0.63;;;16.90;99.90;;;;;;4994376;28;20620;-78
2021/09/19 01:48:37;;;;;;;1.30;0.80;;;16.90;99.90;;;;;;5009782;28;20630;-78
2021/09/19 01:51:05;;;;;;;1.20;0.60;;;16.90;99.90;;;;;;4983495;28;20180;-78
2021/09/19 01:53:31;;;;;;;1.40;0.70;;;16.90;99.90;;;;;;5009771;28;20643;-78
2021/09/19 01:55:57;;;;;;;1.20;0.60;;;16.90;99.90;;;;;;5011599;28;20578;-78
2021/09/19 01:58:24;;;;;;;1.87;0.70;;;16.80;99.90;;;;;;5010806;28;20612;-78
2021/09/19 02:01:02;;;;;;;1.23;0.80;;;16.80;99.90;;;;;;4993595;28;20593;-78
2021/09/19 02:03:28;;;;;;;1.30;0.70;;;16.80;99.90;;;;;;4992129;28;20563;-78
2021/09/19 02:05:54;;;;;;;4.13;1.93;;;16.80;99.90;;;;;;4992099;28;20575;-78
2021/09/19 02:08:20;;;;;;;1.40;0.70;;;16.80;99.90;;;;;;4990436;28;20262;-78
2021/09/19 02:10:46;;;;;;;3.60;1.27;;;16.80;99.90;;;;;;4992175;28;20674;-78
2021/09/19 02:13:12;;;;;;;1.40;0.70;;;16.80;99.90;;;;;;4992080;28;20175;-78
2021/09/19 02:15:37;;;;;;;4.70;0.80;;;16.80;99.90;;;;;;4992404;28;20199;-78
2021/09/19 02:18:03;;;;;;;1.20;0.70;;;16.70;99.90;;;;;;4994014;28;20182;-78
2021/09/19 02:20:29;;;;;;;1.77;0.70;;;16.70;99.90;;;;;;4993377;28;20617;-78
2021/09/19 02:22:55;;;;;;;1.20;0.70;;;16.60;99.90;;;;;;4993255;28;20574;-78
2021/09/19 02:25:20;;;;;;;1.40;0.70;;;16.70;99.90;;;;;;4995844;28;20646;-78
2021/09/19 02:27:46;;;;;;;1.80;0.70;;;16.60;99.90;;;;;;4977818;28;20210;-78
2021/09/19 02:30:15;;;;;;;1.13;0.67;;;16.60;99.90;;;;;;4995499;28;20293;-78
2021/09/19 02:32:41;;;;;;;1.20;0.70;;;16.60;99.90;;;;;;4996268;28;20261;-78
2021/09/19 02:35:08;;;;;;;1.30;0.80;;;16.60;99.90;;;;;;4995503;28;21067;-78
2021/09/19 02:37:39;;;;;;;1.20;0.70;;;16.60;99.90;;;;;;4995797;28;20175;-79
2021/09/19 02:40:06;;;;;;;1.20;0.60;;;16.60;99.90;;;;;;4995166;28;20652;-78
2021/09/19 02:42:33;;;;;;;1.57;0.67;;;16.60;99.90;;;;;;4995758;28;20972;-78
2021/09/19 02:44:59;;;;;;;2.33;0.50;;;16.60;99.90;;;;;;4978117;28;20576;-78
2021/09/19 02:47:24;;;;;;;1.40;0.60;;;16.50;99.90;;;;;;4995560;28;20574;-78
2021/09/19 02:49:50;;;;;;;1.13;0.57;;;16.50;99.90;;;;;;4994628;28;20618;-78
2021/09/19 02:52:16;;;;;;;2.47;0.80;;;16.50;99.90;;;;;;4995627;28;20618;-77
2021/09/19 02:54:41;;;;;;;1.20;0.70;;;16.50;99.90;;;;;;4995724;28;20279;-78
2021/09/19 02:57:07;;;;;;;1.30;0.60;;;16.50;99.90;;;;;;4998080;28;20262;-77
2021/09/19 02:59:33;;;;;;;2.00;0.60;;;16.50;99.90;;;;;;4994096;28;20241;-78
2021/09/19 03:01:58;;;;;;;1.20;0.60;;;16.50;99.90;;;;;;4994468;28;20559;-77
2021/09/19 03:04:24;;;;;;;2.87;1.23;;;16.40;99.90;;;;;;4995136;28;20225;-77
2021/09/19 03:06:50;;;;;;;1.73;0.60;;;16.40;99.90;;;;;;4994403;28;20682;-77
2021/09/19 03:09:15;;;;;;;1.10;0.60;;;16.40;99.90;;;;;;4994422;28;20667;-77
2021/09/19 03:11:41;;;;;;;1.10;0.53;;;16.40;99.90;;;;;;4994975;28;20201;-77
2021/09/19 03:14:07;;;;;;;1.30;0.70;;;16.40;99.90;;;;;;4995022;28;20195;-77
2021/09/19 03:16:33;;;;;;;1.37;0.80;;;16.40;99.90;;;;;;4994618;28;20484;-77
2021/09/19 03:18:58;;;;;;;1.53;0.70;;;16.40;99.90;;;;;;4994601;28;20175;-77
2021/09/19 03:21:24;;;;;;;1.27;0.63;;;16.40;99.90;;;;;;4994709;28;20182;-78
2021/09/19 03:23:50;;;;;;;2.30;0.80;;;16.30;99.90;;;;;;4994965;28;20646;-78
2021/09/19 03:26:15;;;;;;;1.30;0.60;;;16.30;99.90;;;;;;4994682;28;20167;-77
2021/09/19 03:28:41;;;;;;;1.83;0.70;;;16.30;99.90;;;;;;4977027;28;20194;-78
2021/09/19 03:31:07;;;;;;;1.20;0.80;;;16.30;99.90;;;;;;4995010;28;20267;-78
2021/09/19 03:33:32;;;;;;;1.37;0.70;;;16.30;99.90;;;;;;4998512;28;20164;-78
2021/09/19 03:35:58;;;;;;;1.40;0.60;;;16.30;99.90;;;;;;4976505;28;20725;-77
2021/09/19 03:38:24;;;;;;;1.40;0.60;;;16.30;99.90;;;;;;4976960;28;20171;-78
2021/09/19 03:40:50;;;;;;;1.20;0.60;;;16.20;99.90;;;;;;4994516;28;20278;-78
2021/09/19 03:43:16;;;;;;;1.20;0.60;;;16.20;99.90;;;;;;4994581;28;20567;-78
2021/09/19 03:45:41;;;;;;;1.17;0.60;;;16.20;99.90;;;;;;4994563;28;20578;-78
2021/09/19 03:48:09;;;;;;;1.10;0.60;;;16.20;99.90;;;;;;4995119;28;20209;-78
2021/09/19 03:50:35;;;;;;;1.23;0.63;;;16.20;99.90;;;;;;4996841;28;20171;-78
2021/09/19 03:53:01;;;;;;;1.10;0.60;;;16.20;99.90;;;;;;4994266;28;20794;-78
2021/09/19 03:55:27;;;;;;;1.70;0.60;;;16.20;99.90;;;;;;4994226;28;20825;-78
2021/09/19 03:57:53;;;;;;;1.20;0.70;;;16.20;99.90;;;;;;4993885;28;20682;-78
2021/09/19 04:00:19;;;;;;;1.30;0.80;;;16.20;99.90;;;;;;4994189;28;20680;-78
2021/09/19 04:02:45;;;;;;;1.20;0.60;;;16.20;99.90;;;;;;4976814;28;20171;-78
2021/09/19 04:05:12;;;;;;;1.20;0.70;;;16.20;99.90;;;;;;4994122;28;20562;-78
2021/09/19 04:07:38;;;;;;;1.60;0.70;;;16.20;99.90;;;;;;4994361;28;20174;-78
2021/09/19 04:10:06;;;;;;;2.33;0.80;;;16.20;99.90;;;;;;4980620;28;21120;-78
2021/09/19 04:12:32;;;;;;;1.73;0.70;;;16.10;99.90;;;;;;4976594;28;20573;-78
2021/09/19 04:14:58;;;;;;;1.70;0.70;;;16.10;99.90;;;;;;4993785;28;20613;-79
2021/09/19 04:17:24;;;;;;;7.23;1.10;;;16.10;99.90;;;;;;4993768;28;20902;-78
2021/09/19 04:19:50;;;;;;;1.60;0.70;;;16.10;99.90;;;;;;4993505;28;20609;-78
2021/09/19 04:22:16;;;;;;;1.30;0.70;;;16.10;99.90;;;;;;4993680;28;20594;-78
2021/09/19 04:24:42;;;;;;;1.83;0.70;;;16.00;99.90;;;;;;4976166;28;20572;-78
2021/09/19 04:27:07;;;;;;;1.30;0.70;;;16.00;99.90;;;;;;4993582;28;20657;-78
2021/09/19 04:29:36;;;;;;;1.20;0.67;;;16.00;99.90;;;;;;4975518;28;20625;-78
2021/09/19 04:32:03;;;;;;;1.50;0.67;;;16.00;99.90;;;;;;4993699;28;20175;-78
2021/09/19 04:34:29;;;;;;;1.23;0.60;;;16.00;99.90;;;;;;4993311;28;20653;-77
2021/09/19 04:36:55;;;;;;;1.20;0.80;;;16.00;99.90;;;;;;4959972;28;20578;-77
2021/09/19 04:39:21;;;;;;;1.70;0.80;;;16.00;99.90;;;;;;4993177;28;20601;-77
2021/09/19 04:41:47;;;;;;;1.40;0.70;;;15.90;99.90;;;;;;4993503;28;20563;-77
2021/09/19 04:44:12;;;;;;;1.20;0.60;;;16.00;99.90;;;;;;4993541;28;20179;-77
2021/09/19 04:46:38;;;;;;;1.20;0.70;;;15.90;99.90;;;;;;4979518;28;20209;-77
2021/09/19 04:49:04;;;;;;;1.20;0.77;;;15.90;99.90;;;;;;4975767;28;20202;-77
2021/09/19 04:51:30;;;;;;;2.43;0.90;;;15.90;99.90;;;;;;4993114;28;20707;-77
2021/09/19 04:53:55;;;;;;;1.80;0.73;;;15.90;99.90;;;;;;4993189;28;20290;-77
2021/09/19 04:56:21;;;;;;;1.93;0.70;;;15.90;99.90;;;;;;4975502;28;20933;-77
2021/09/19 04:58:47;;;;;;;1.40;0.80;;;15.90;99.90;;;;;;4992643;28;20187;-77
2021/09/19 05:01:13;;;;;;;1.37;0.77;;;15.90;99.90;;;;;;4992853;28;20581;-77
2021/09/19 05:03:39;;;;;;;1.93;0.80;;;15.90;99.90;;;;;;4993041;28;20179;-77
2021/09/19 05:06:05;;;;;;;1.43;0.80;;;15.90;99.90;;;;;;4975409;28;20585;-77
2021/09/19 05:08:31;;;;;;;1.40;0.80;;;15.90;99.90;;;;;;4992481;28;20704;-76
2021/09/19 05:10:57;;;;;;;1.30;0.77;;;15.90;99.90;;;;;;4992805;28;20658;-77
2021/09/19 05:13:22;;;;;;;1.70;1.03;;;15.80;99.90;;;;;;4975352;28;20198;-77
2021/09/19 05:15:48;;;;;;;1.43;0.87;;;15.90;99.90;;;;;;4992817;28;20622;-76
2021/09/19 05:18:14;;;;;;;1.57;0.90;;;15.80;99.90;;;;;;4992252;28;20197;-77
2021/09/19 05:20:40;;;;;;;1.90;0.97;;;15.80;99.90;;;;;;4992864;28;20171;-77
2021/09/19 05:23:06;;;;;;;1.30;0.80;;;15.90;99.90;;;;;;4996627;28;20177;-77
2021/09/19 05:25:31;;;;;;;1.83;1.00;;;15.80;99.90;;;;;;4975534;28;20570;-77
2021/09/19 05:27:58;;;;;;;1.30;0.80;;;15.80;99.90;;;;;;4992242;28;20171;-77
2021/09/19 05:30:24;;;;;;;1.53;1.10;;;15.80;99.90;;;;;;4974936;28;20621;-77
2021/09/19 05:32:50;;;;;;;1.73;0.93;;;15.80;99.90;;;;;;4975146;28;20175;-77
2021/09/19 05:35:16;;;;;;;1.70;1.03;;;15.80;99.90;;;;;;4992479;28;20629;-77
2021/09/19 05:37:42;;;;;;;1.30;0.83;;;15.90;99.90;;;;;;4974590;28;20541;-77
2021/09/19 05:40:09;;;;;;;1.40;0.90;;;15.80;99.90;;;;;;4992419;28;20598;-77
2021/09/19 05:42:35;;;;;;;1.40;1.10;;;15.90;99.90;;;;;;4992421;28;20194;-77
2021/09/19 05:45:01;;;;;;;1.57;1.10;;;15.90;99.90;;;;;;4974874;28;21145;-77
2021/09/19 05:47:27;;;;;;;1.60;1.00;;;15.90;99.90;;;;;;4992330;28;20167;-76
2021/09/19 05:49:52;;;;;;;1.60;1.07;;;15.90;99.90;;;;;;4991863;28;20605;-77
2021/09/19 05:52:18;;;;;;;1.93;1.30;;;15.90;99.90;;;;;;4974839;28;20601;-77
2021/09/19 05:54:44;;;;;;;1.93;1.00;;;15.80;99.90;;;;;;4992258;28;20206;-77
2021/09/19 05:57:09;;;;;;;1.40;1.00;;;15.80;99.90;;;;;;4975283;28;20166;-77
2021/09/19 05:59:35;;;;;;;1.30;0.90;;;15.90;99.90;;;;;;4995894;28;20557;-76
2021/09/19 06:02:01;;;;;;;1.67;1.00;;;15.90;99.90;;;;;;4992453;28;20171;-76
2021/09/19 06:04:27;;;;;;;1.57;1.03;;;16.00;99.90;;;;;;4991843;28;20167;-76
2021/09/19 06:06:52;;;;;;;1.60;1.30;;;16.00;99.90;;;;;;4992041;28;20291;-77
2021/09/19 06:09:18;;;;;;;2.37;1.50;;;15.90;99.90;;;;;;4958128;28;20195;-77
2021/09/19 06:11:44;;;;;;;1.67;1.10;;;16.00;99.90;;;;;;4992015;28;20503;-77
2021/09/19 06:14:10;;;;;;;2.63;1.20;;;16.00;99.90;;;;;;4992030;28;20191;-76
2021/09/19 06:16:36;;;;;;;2.03;1.50;;;16.00;99.90;;;;;;4974474;28;20178;-77
2021/09/19 06:19:03;;;;;;;2.57;1.70;;;16.00;99.90;;;;;;4991672;28;20602;-77
2021/09/19 06:21:29;;;;;;;2.20;1.43;;;16.10;99.90;;;;;;4974279;28;21172;-77
2021/09/19 06:23:55;;;;;;;2.00;1.40;;;16.10;99.90;;;;;;4992047;28;20577;-77
2021/09/19 06:26:20;;;;;;;1.80;1.27;;;16.10;99.90;;;;;;4991793;28;20571;-77
2021/09/19 06:28:46;;;;;;;2.57;1.93;;;16.20;99.90;;;;;;4991357;28;20230;-76
2021/09/19 06:31:12;;;;;;;1.93;1.23;;;16.20;99.90;;;;;;4991794;28;20562;-77
2021/09/19 06:33:38;;;;;;;2.37;1.40;;;16.30;99.90;;;;;;4991953;28;20167;-77
2021/09/19 06:36:04;;;;;;;1.77;1.40;;;16.40;99.90;;;;;;4976638;28;20175;-77
2021/09/19 06:38:30;;;;;;;2.37;1.20;;;16.40;99.90;;;;;;4993169;28;20709;-77
2021/09/19 06:40:56;;;;;;;2.10;1.50;;;16.50;99.90;;;;;;4974314;28;20234;-77
2021/09/19 06:43:21;;;;;;;1.90;1.40;;;16.60;99.90;;;;;;4991866;28;20885;-77
2021/09/19 06:45:47;;;;;;;2.37;1.87;;;16.60;99.90;;;;;;4991784;28;20270;-77
2021/09/19 06:48:13;;;;;;;1.63;1.30;;;16.70;99.90;;;;;;4973934;28;20226;-76
2021/09/19 06:50:38;;;;;;;1.90;1.60;;;16.80;99.90;;;;;;4973998;28;20171;-76
2021/09/19 06:53:04;;;;;;;2.37;1.23;;;16.90;99.90;;;;;;4974536;28;20660;-77
2021/09/19 06:55:30;;;;;;;2.20;1.50;;;16.90;99.90;;;;;;4974180;28;20202;-76
2021/09/19 06:57:57;;;;;;;2.03;1.17;;;17.10;99.90;;;;;;4991186;28;20566;-77
2021/09/19 07:00:23;;;;;;;2.47;1.60;;;17.20;99.90;;;;;;4991609;28;20238;-77
2021/09/19 07:02:50;;;;;;;2.70;1.20;;;17.30;99.90;;;;;;4991594;28;20570;-77
2021/09/19 07:05:15;;;;;;;2.43;1.77;;;17.40;99.90;;;;;;4991809;28;20573;-76
2021/09/19 07:07:41;;;;;;;1.93;1.57;;;17.50;99.90;;;;;;4991466;28;21114;-77
2021/09/19 07:10:07;;;;;;;1.80;1.40;;;17.70;99.90;;;;;;4975771;28;20822;-77
2021/09/19 07:12:33;;;;;;;1.73;1.37;;;17.90;99.90;;;;;;4995381;28;20215;-77
2021/09/19 07:14:58;;;;;;;1.80;1.33;;;18.30;99.90;;;;;;4999186;28;20626;-77
2021/09/19 07:17:24;;;;;;;2.07;1.00;;;18.90;99.90;;;;;;4977441;28;20183;-77
2021/09/19 07:19:50;;;;;;;1.50;1.30;;;19.60;99.90;;;;;;4994505;28;20261;-78
2021/09/19 07:22:16;;;;;;;2.00;1.30;;;20.30;99.90;;;;;;4977484;28;20170;-77
2021/09/19 07:24:41;;;;;;;1.77;1.20;;;21.10;99.90;;;;;;4994766;28;20175;-77
2021/09/19 07:27:07;;;;;;;1.90;1.33;;;21.80;99.90;;;;;;4994711;28;20175;-77
2021/09/19 07:29:34;;;;;;;1.60;1.00;;;22.60;99.90;;;;;;4994167;28;20221;-77
2021/09/19 07:32:01;;;;;;;1.93;1.00;;;23.40;99.90;;;;;;4977155;28;20582;-79
2021/09/19 07:34:30;;;;;;;1.37;0.87;;;24.00;99.90;;;;;;4994527;28;20664;-79
2021/09/19 07:36:56;;;;;;;1.50;1.20;;;24.60;99.90;;;;;;4994438;28;20567;-80
2021/09/19 07:39:22;;;;;;;1.30;0.90;;;25.10;99.90;;;;;;4976614;28;20610;-79
2021/09/19 07:41:53;;;;;;;1.93;0.87;;;25.70;99.90;;;;;;4976952;28;20578;-78
2021/09/19 07:44:20;;;;;;;1.40;0.90;;;26.40;99.90;;;;;;4977076;28;20186;-79
2021/09/19 07:46:45;;;;;;;1.70;0.90;;;26.90;99.90;;;;;;4977212;28;20566;-79
2021/09/19 07:49:12;;;;;;;1.50;0.80;;;27.30;99.90;;;;;;4994330;28;20655;-78
2021/09/19 07:51:38;;;;;;;1.90;0.90;;;28.00;99.90;;;;;;4999565;28;20171;-79
2021/09/19 07:54:04;;;;;;;1.23;0.80;;;28.20;99.90;;;;;;4976613;28;20636;-79
2021/09/19 07:56:30;;;;;;;1.60;0.80;;;28.60;99.90;;;;;;4976783;28;20574;-79
2021/09/19 07:58:55;;;;;;;2.40;1.03;;;29.10;99.90;;;;;;4959899;28;20684;-78
2021/09/19 08:01:21;;;;;;;1.20;0.80;;;29.50;99.90;;;;;;4994110;28;20924;-79
2021/09/19 08:03:48;;;;;;;1.73;0.80;;;29.80;99.90;;;;;;4993628;28;20190;-78
2021/09/19 08:06:15;;;;;;;1.23;0.73;;;30.20;99.90;;;;;;4976675;28;20580;-78
2021/09/19 08:08:41;;;;;;;1.20;0.80;;;30.40;98.60;;;;;;4959921;28;20214;-79
2021/09/19 08:11:07;;;;;;;1.50;1.00;;;30.40;96.70;;;;;;4976653;28;20951;-79
2021/09/19 08:13:33;;;;;;;1.20;0.80;;;30.60;97.00;;;;;;4976358;28;20737;-79
2021/09/19 08:15:59;;;;;;;1.30;0.83;;;31.00;96.80;;;;;;4976473;28;20293;-80
2021/09/19 08:18:24;;;;;;;1.40;0.80;;;31.30;96.30;;;;;;4959859;28;20196;-79
2021/09/19 08:20:50;;;;;;;1.20;0.70;;;31.50;94.30;;;;;;4975884;28;20183;-79
2021/09/19 08:23:16;;;;;;;1.30;0.80;;;31.40;92.40;;;;;;4993686;28;20228;-79
2021/09/19 08:25:42;;;;;;;1.87;1.00;;;31.50;92.00;;;;;;4960397;28;20228;-79
2021/09/19 08:28:07;;;;;;;1.40;0.73;;;31.60;91.60;;;;;;4998705;28;20168;-79
2021/09/19 08:30:33;;;;;;;1.30;0.83;;;31.80;91.40;;;;;;4960094;28;20536;-79
2021/09/19 08:32:59;;;;;;;1.73;0.70;;;32.00;90.20;;;;;;4976689;28;20164;-80
2021/09/19 08:35:25;;;;;;;1.10;0.60;;;31.90;89.00;;;;;;4975795;28;20209;-79
2021/09/19 08:37:50;;;;;;;1.40;0.90;;;32.00;87.70;;;;;;4959507;28;20216;-80
2021/09/19 08:40:17;;;;;;;1.40;0.80;;;31.90;82.00;;;;;;4975695;28;20661;-80
2021/09/19 08:42:43;;;;;;;5.03;0.60;;;31.80;82.80;;;;;;4993625;28;20177;-80
2021/09/19 08:45:10;;;;;;;2.17;0.90;;;32.00;81.00;;;;;;4975529;28;20635;-80
2021/09/19 08:47:36;;;;;;;1.50;1.00;;;31.70;77.50;;;;;;4993274;28;20601;-80
2021/09/19 08:50:08;;;;;;;1.20;0.70;;;31.40;75.10;;;;;;4959113;28;20609;-79
2021/09/19 08:52:34;;;;;;;1.33;0.87;;;31.30;75.30;;;;;;4975551;28;20682;-79
2021/09/19 08:55:00;;;;;;;1.20;0.67;;;31.40;76.30;;;;;;4992220;28;20676;-79
2021/09/19 08:57:26;;;;;;;1.57;0.80;;;31.40;75.40;;;;;;4993007;28;20230;-79
2021/09/19 08:59:54;;;;;;;1.27;0.73;;;31.50;75.70;;;;;;4974891;28;20607;-79
2021/09/19 09:02:21;;;;;;;1.70;0.80;;;31.60;74.80;;;;;;4975599;28;20251;-79
2021/09/19 09:04:54;;;;;;;1.23;0.77;;;31.80;75.30;;;;;;4997844;28;20752;-80
2021/09/19 09:07:22;;;;;;;1.33;0.70;;;32.10;75.10;;;;;;4976115;28;20573;-80
2021/09/19 09:09:53;;;;;;;2.70;0.67;;;32.30;72.60;;;;;;4959158;28;21003;-80
2021/09/19 09:12:20;;;;;;;1.27;0.70;;;32.20;68.20;;;;;;5002273;28;20681;-79
2021/09/19 09:14:51;;;;;;;1.20;0.70;;;32.10;68.50;;;;;;5012207;28;20930;-80
2021/09/19 09:17:20;;;;;;;1.43;0.80;;;32.10;68.80;;;;;;4978541;28;20585;-79
2021/09/19 09:19:51;;;;;;;1.20;0.60;;;32.50;68.40;;;;;;4993963;28;20656;-79
2021/09/19 09:22:23;;;;;;;1.30;0.63;;;32.70;66.60;;;;;;4994761;28;20568;-80
2021/09/19 09:25:10;;;;;;;1.10;0.60;;;32.70;66.90;;;;;;4978374;28;20652;-78
2021/09/19 09:27:37;;;;;;;1.37;0.73;;;33.20;68.20;;;;;;5012550;28;20569;-78
2021/09/19 09:30:08;;;;;;;1.23;0.70;;;33.10;62.80;;;;;;4977939;28;21203;-79
2021/09/19 09:33:01;;;;;;;1.50;0.80;;;32.90;62.50;;;;;;4974500;28;20605;-78
2021/09/19 09:35:40;;;;;;;1.20;0.70;;;32.40;60.50;;;;;;5010555;28;20701;-77
2021/09/19 09:38:23;;;;;;;1.30;0.70;;;32.20;61.50;;;;;;4993612;28;20588;-77
2021/09/19 09:40:49;;;;;;;1.23;0.77;;;31.90;59.90;;;;;;5011490;28;20617;-78
2021/09/19 09:43:18;;;;;;;1.20;0.60;;;31.90;61.90;;;;;;4994103;28;21216;-78
2021/09/19 09:45:46;;;;;;;1.60;0.87;;;32.00;63.80;;;;;;5011531;28;21249;-78
2021/09/19 09:48:31;;;;;;;1.40;0.83;;;32.30;61.20;;;;;;4993712;28;20607;-78
2021/09/19 09:51:00;;;;;;;1.87;0.80;;;32.40;61.90;;;;;;4997063;28;20621;-78
2021/09/19 09:53:27;;;;;;;1.20;0.70;;;32.50;60.50;;;;;;4991795;28;21128;-77
2021/09/19 09:55:58;;;;;;;1.87;0.70;;;32.50;60.90;;;;;;4991867;28;20581;-78
2021/09/19 09:58:23;;;;;;;1.37;0.70;;;32.70;59.90;;;;;;5007976;28;20585;-78
2021/09/19 10:00:53;;;;;;;1.27;0.73;;;32.70;58.90;;;;;;4993362;28;20640;-79
2021/09/19 10:03:18;;;;;;;1.30;0.70;;;32.60;58.20;;;;;;5011081;28;20178;-78
2021/09/19 10:05:44;;;;;;;1.20;0.70;;;32.40;57.90;;;;;;5011160;28;21263;-78
2021/09/19 10:08:10;;;;;;;1.20;0.60;;;32.30;58.40;;;;;;5010502;28;20208;-78
2021/09/19 10:10:40;;;;;;;1.50;1.03;;;32.60;58.30;;;;;;5011340;28;20566;-78
2021/09/19 10:13:07;;;;;;;1.40;0.70;;;32.80;58.50;;;;;;4993591;28;20582;-78
2021/09/19 10:15:34;;;;;;;1.27;0.70;;;32.80;57.20;;;;;;5011458;28;20620;-79
2021/09/19 10:18:00;;;;;;;1.30;0.70;;;32.50;56.50;;;;;;5015897;28;21119;-78
2021/09/19 10:20:29;;;;;;;1.20;0.57;;;32.10;56.90;;;;;;5011399;28;20622;-79
2021/09/19 10:22:55;;;;;;;1.30;0.80;;;32.10;57.50;;;;;;4990334;28;20626;-79
2021/09/19 10:25:39;;;;;;;1.10;0.60;;;31.90;56.90;;;;;;4974127;28;20655;-80
2021/09/19 10:28:41;;;;;;;1.17;0.60;;;31.50;57.10;;;;;;4990952;28;20573;-79
2021/09/19 10:31:15;;;;;;;1.10;0.60;;;31.10;57.00;;;;;;4991403;28;20612;-81
2021/09/19 10:33:52;;;;;;;1.20;0.63;;;30.30;56.20;;;;;;4991201;28;20581;-81
2021/09/19 10:36:22;;;;;;;1.97;0.70;;;29.70;57.10;;;;;;4990978;28;21125;-81
2021/09/19 10:38:49;;;;;;;1.63;0.70;;;29.20;57.80;;;;;;4957710;28;20602;-80
2021/09/19 10:41:23;;;;;;;2.27;0.60;;;28.80;58.40;;;;;;4993755;28;20589;-80
2021/09/19 10:43:50;;;;;;;1.10;0.63;;;28.60;59.10;;;;;;4997191;28;20635;-80
2021/09/19 10:46:34;;;;;;;1.10;0.50;;;28.50;59.90;;;;;;4999369;28;20561;-80
2021/09/19 10:49:19;;;;;;;2.43;0.73;;;28.30;59.90;;;;;;4997731;28;20592;-81
2021/09/19 10:52:00;;;;;;;1.30;0.70;;;28.40;60.80;;;;;;4997470;28;20561;-81
2021/09/19 10:54:50;;;;;;;1.20;0.67;;;28.40;61.50;;;;;;4969728;28;20587;-81
2021/09/19 10:57:28;;;;;;;1.40;0.90;;;28.50;61.10;;;;;;4997826;28;21125;-80
2021/09/19 11:00:13;;;;;;;1.23;0.70;;;28.40;59.90;;;;;;4982468;28;20636;-80
2021/09/19 11:02:42;;;;;;;1.30;0.70;;;28.00;59.70;;;;;;4965546;28;20569;-81
2021/09/19 11:05:28;;;;;;;1.40;0.70;;;27.60;59.80;;;;;;4997199;28;20679;-81
2021/09/19 11:08:13;;;;;;;1.40;0.73;;;27.30;60.70;;;;;;5000501;28;20588;-80
2021/09/19 11:10:45;;;;;;;2.07;1.10;;;27.00;60.60;;;;;;5017390;28;20576;-81
2021/09/19 11:13:21;;;;;;;1.70;0.80;;;26.50;60.60;;;;;;5001053;28;20612;-81
2021/09/19 11:16:05;;;;;;;1.97;0.90;;;26.10;61.20;;;;;;5034213;28;20574;-81
2021/09/19 11:18:39;;;;;;;1.50;1.00;;;25.80;61.90;;;;;;5016886;28;21017;-81
2021/09/19 11:21:16;;;;;;;1.50;0.80;;;25.40;62.30;;;;;;5018700;28;20705;-80
2021/09/19 11:23:47;;;;;;;1.33;0.80;;;25.10;63.00;;;;;;5014590;28;20569;-81
2021/09/19 11:26:19;;;;;;;1.20;0.60;;;24.80;64.30;;;;;;5014093;28;20676;-80
2021/09/19 11:28:47;;;;;;;1.30;0.80;;;24.50;64.40;;;;;;5013912;28;20654;-81
2021/09/19 11:31:15;;;;;;;1.27;0.70;;;24.30;65.30;;;;;;5018688;28;20557;-82
2021/09/19 11:33:41;;;;;;;1.27;0.80;;;24.20;66.40;;;;;;5014722;28;20573;-81
2021/09/19 11:36:12;;;;;;;1.50;0.70;;;24.10;67.60;;;;;;4996864;28;20583;-81
2021/09/19 11:38:41;;;;;;;1.53;0.90;;;23.90;68.40;;;;;;5013349;28;20716;-81
2021/09/19 11:41:08;;;;;;;1.50;0.90;;;23.80;69.60;;;;;;5007753;28;20582;-79
2021/09/19 11:43:36;;;;;;;1.60;0.80;;;23.70;69.10;;;;;;4960516;28;20655;-79
2021/09/19 11:46:10;;;;;;;1.50;0.90;;;23.60;69.50;;;;;;4976967;28;21223;-80
2021/09/19 11:48:36;;;;;;;1.60;1.00;;;23.50;70.80;;;;;;4976168;28;20606;-80
2021/09/19 11:51:03;;;;;;;1.40;0.80;;;23.50;70.30;;;;;;4976657;28;20610;-80
2021/09/19 11:53:30;;;;;;;1.40;0.80;;;23.60;70.70;;;;;;4993994;28;20558;-81
2021/09/19 11:55:56;;;;;;;2.23;0.90;;;23.60;71.20;;;;;;4976228;28;20689;-81
2021/09/19 11:58:22;;;;;;;5.93;1.80;;;23.70;72.10;;;;;;4986653;28;20605;-80
2021/09/19 12:00:53;;;;;;;1.50;1.00;;;23.90;72.60;;;;;;5005039;28;21074;-81
2021/09/19 12:03:19;;;;;;;4.40;1.33;;;23.90;73.00;;;;;;5008498;28;20958;-82
2021/09/19 12:05:52;;;;;;;2.10;0.70;;;24.00;72.90;;;;;;5008638;28;20639;-80
2021/09/19 12:08:29;;;;;;;1.47;1.00;;;24.20;73.10;;;;;;4994293;28;20613;-81
2021/09/19 12:10:58;;;;;;;1.30;0.80;;;24.30;73.30;;;;;;4962444;28;20595;-81
2021/09/19 12:13:24;;;;;;;1.50;0.83;;;24.40;73.50;;;;;;5000879;28;20635;-81
2021/09/19 12:16:14;;;;;;;2.43;1.07;;;24.70;73.70;;;;;;4987511;28;20698;-81
2021/09/19 12:18:46;;;;;;;1.43;1.00;;;24.70;73.50;;;;;;4987648;28;21027;-80
2021/09/19 12:21:14;;;;;;;2.10;1.10;;;24.90;73.30;;;;;;4997373;28;20562;-80
2021/09/19 12:23:50;;;;;;;1.90;1.00;;;24.90;72.50;;;;;;5014352;28;20565;-80
2021/09/19 12:26:20;;;;;;;1.60;1.33;;;24.90;72.50;;;;;;4995810;28;20623;-82
2021/09/19 12:28:57;;;;;;;1.50;0.80;;;24.90;72.10;;;;;;4995288;28;20640;-82
2021/09/19 12:31:42;;;;;;;1.23;0.80;;;24.80;71.70;;;;;;5012983;28;20570;-82
2021/09/19 12:34:34;;;;;;;1.50;0.90;;;24.60;71.50;;;;;;5013216;28;21125;-81
2021/09/19 12:37:00;;;;;;;1.40;0.80;;;24.60;71.00;;;;;;5008738;28;20601;-81
2021/09/19 12:39:32;;;;;;;1.47;0.97;;;24.60;71.10;;;;;;4979881;28;20657;-82
2021/09/19 12:42:01;;;;;;;1.70;0.90;;;24.50;71.60;;;;;;5014285;28;21168;-82
2021/09/19 12:44:30;;;;;;;2.27;1.10;;;24.50;71.40;;;;;;4983288;28;20920;-82
2021/09/19 12:47:01;;;;;;;2.00;1.10;;;24.50;72.10;;;;;;5000352;28;20574;-83
2021/09/19 12:49:32;;;;;;;1.80;1.03;;;24.50;71.90;;;;;;4980666;28;20624;-83
2021/09/19 12:52:06;;;;;;;1.80;1.13;;;24.50;71.70;;;;;;5012407;28;20727;-82